Time;durP1;ratioP1;P1;durP2;ratioP2;P2;SDS_P1;SDS_P2;PMS_P1;PMS_P2;Temp;Humidity;BMP_temperature;BMP_pressure;BME280_temperature;BME280_humidity;BME280_pressure;Samples;Min_cycle;Max_cycle;Signal;HPM_P1;HPM_P2
2022/02/14 00:01:56;;;;;;;38.28;16.58;;;;;;;;;;5053864;28;20021;-75
2022/02/14 00:04:23;;;;;;;39.22;18.40;;;;;;;;;;5052972;28;20127;-75
2022/02/14 00:06:49;;;;;;;40.75;17.15;;;;;;;;;;5054193;28;20036;-75
2022/02/14 00:09:15;;;;;;;37.70;16.77;;;;;;;;;;5053776;28;20475;-75
2022/02/14 00:11:41;;;;;;;30.20;14.73;;;;;;;;;;5053728;28;20052;-75
2022/02/14 00:14:07;;;;;;;32.78;15.48;;;;;;;;;;5053769;28;20064;-74
2022/02/14 00:16:34;;;;;;;32.70;15.20;;;;;;;;;;5053858;28;20120;-74
2022/02/14 00:19:00;;;;;;;32.05;15.02;;;;;;;;;;5054001;28;20049;-75
2022/02/14 00:21:28;;;;;;;29.88;14.85;;;;;;;;;;5052415;28;20099;-75
2022/02/14 00:23:54;;;;;;;33.63;14.82;;;;;;;;;;5054003;28;20016;-75
2022/02/14 00:26:20;;;;;;;28.58;14.50;;;;;;;;;;5053939;28;20356;-75
2022/02/14 00:28:46;;;;;;;33.25;14.10;;;;;;;;;;5053460;28;20104;-74
2022/02/14 00:31:17;;;;;;;31.58;16.98;;;;;;;;;;5053423;28;20163;-74
2022/02/14 00:33:45;;;;;;;36.03;16.73;;;;;;;;;;5052102;28;20043;-73
2022/02/14 00:36:11;;;;;;;31.40;14.68;;;;;;;;;;5053449;28;20017;-74
2022/02/14 00:38:37;;;;;;;34.42;15.20;;;;;;;;;;5053374;28;20029;-73
2022/02/14 00:41:02;;;;;;;34.25;15.80;;;;;;;;;;5053255;28;20382;-74
2022/02/14 00:43:28;;;;;;;31.48;13.55;;;;;;;;;;5053326;28;20059;-74
2022/02/14 00:45:53;;;;;;;30.40;12.70;;;;;;;;;;5053047;28;20025;-73
2022/02/14 00:48:20;;;;;;;28.65;12.63;;;;;;;;;;5053339;28;20035;-74
2022/02/14 00:50:46;;;;;;;27.13;12.40;;;;;;;;;;5052020;28;20025;-75
2022/02/14 00:53:16;;;;;;;29.30;13.38;;;;;;;;;;5053008;28;20037;-75
2022/02/14 00:55:41;;;;;;;31.98;13.73;;;;;;;;;;5053622;28;20079;-74
2022/02/14 00:58:07;;;;;;;29.95;13.27;;;;;;;;;;5053118;28;20395;-75
2022/02/14 01:00:33;;;;;;;26.75;13.30;;;;;;;;;;5053372;28;20029;-76
2022/02/14 01:03:02;;;;;;;31.10;14.38;;;;;;;;;;5053391;28;20021;-75
2022/02/14 01:05:28;;;;;;;32.80;14.15;;;;;;;;;;5053157;28;20021;-76
2022/02/14 01:07:59;;;;;;;31.80;13.75;;;;;;;;;;5055445;28;20040;-75
2022/02/14 01:10:25;;;;;;;30.83;13.85;;;;;;;;;;5057209;28;20064;-75
2022/02/14 01:12:52;;;;;;;30.02;13.23;;;;;;;;;;5057158;28;20028;-75
2022/02/14 01:15:18;;;;;;;27.35;13.40;;;;;;;;;;5057579;28;20032;-75
2022/02/14 01:17:44;;;;;;;30.52;14.27;;;;;;;;;;5055523;28;20048;-75
2022/02/14 01:20:11;;;;;;;34.17;13.95;;;;;;;;;;5056976;28;20025;-74
2022/02/14 01:22:37;;;;;;;28.75;13.30;;;;;;;;;;5056024;28;20056;-75
2022/02/14 01:25:04;;;;;;;31.80;13.98;;;;;;;;;;5056897;28;20110;-76
2022/02/14 01:27:30;;;;;;;28.15;13.15;;;;;;;;;;5057192;28;20019;-76
2022/02/14 01:29:56;;;;;;;33.08;14.85;;;;;;;;;;5056742;28;20029;-76
2022/02/14 01:32:23;;;;;;;31.35;16.30;;;;;;;;;;5056651;28;20029;-75
2022/02/14 01:34:52;;;;;;;31.02;13.50;;;;;;;;;;5057156;28;20025;-75
2022/02/14 01:37:18;;;;;;;27.52;12.20;;;;;;;;;;5055392;28;20031;-75
2022/02/14 01:39:43;;;;;;;24.77;12.65;;;;;;;;;;5057138;28;20406;-75
2022/02/14 01:42:09;;;;;;;21.95;11.02;;;;;;;;;;5056627;28;20025;-75
2022/02/14 01:44:38;;;;;;;30.08;14.15;;;;;;;;;;5056480;28;20025;-74
2022/02/14 01:47:15;;;;;;;41.35;16.23;;;;;;;;;;5056416;28;20370;-74
2022/02/14 01:49:41;;;;;;;36.90;16.10;;;;;;;;;;5056433;28;20032;-74
2022/02/14 01:52:07;;;;;;;40.63;17.25;;;;;;;;;;5056240;28;20017;-75
2022/02/14 01:54:34;;;;;;;33.10;15.13;;;;;;;;;;5055193;28;20080;-74
2022/02/14 01:57:00;;;;;;;27.55;15.07;;;;;;;;;;5055117;28;20025;-74
2022/02/14 01:59:26;;;;;;;36.95;20.05;;;;;;;;;;5056264;28;20024;-73
2022/02/14 02:01:51;;;;;;;29.27;15.80;;;;;;;;;;5056064;28;20108;-74
2022/02/14 02:04:17;;;;;;;21.75;11.27;;;;;;;;;;5055946;28;20033;-74
2022/02/14 02:06:42;;;;;;;17.92;10.00;;;;;;;;;;5055133;28;20394;-74
2022/02/14 02:09:08;;;;;;;33.67;15.15;;;;;;;;;;5054905;28;20068;-74
2022/02/14 02:14:21;;;;;;;45.90;19.73;;;;;;;;;;5056178;28;20043;-74
2022/02/14 02:16:46;;;;;;;42.35;20.40;;;;;;;;;;5056293;28;20107;-74
2022/02/14 02:19:12;;;;;;;41.75;17.88;;;;;;;;;;5055878;28;20143;-75
2022/02/14 02:21:37;;;;;;;36.33;17.67;;;;;;;;;;5055658;28;20124;-76
2022/02/14 02:24:08;;;;;;;36.17;18.15;;;;;;;;;;5055819;28;20021;-76
2022/02/14 02:26:34;;;;;;;34.75;18.13;;;;;;;;;;5055804;28;20033;-75
2022/02/14 02:29:00;;;;;;;41.28;19.27;;;;;;;;;;5055460;28;20031;-69
2022/02/14 02:31:26;;;;;;;44.60;21.52;;;;;;;;;;5056040;28;20029;-70
2022/02/14 02:33:51;;;;;;;53.88;23.05;;;;;;;;;;5055995;28;20025;-70
2022/02/14 02:36:16;;;;;;;48.75;20.60;;;;;;;;;;5055458;28;20128;-69
2022/02/14 02:38:42;;;;;;;54.85;22.70;;;;;;;;;;5055532;28;20029;-70
2022/02/14 02:41:07;;;;;;;42.17;18.98;;;;;;;;;;5055215;28;20036;-69
2022/02/14 02:43:33;;;;;;;98.28;57.05;;;;;;;;;;5055095;28;20017;-69
2022/02/14 02:45:59;;;;;;;106.70;57.60;;;;;;;;;;5054004;28;20425;-70
2022/02/14 02:48:26;;;;;;;140.52;62.03;;;;;;;;;;5055233;28;20489;-70
2022/02/14 02:51:05;;;;;;;105.38;47.75;;;;;;;;;;5055428;28;20059;-69
2022/02/14 02:53:34;;;;;;;136.38;49.50;;;;;;;;;;5055326;28;20345;-70
2022/02/14 02:56:00;;;;;;;150.10;47.78;;;;;;;;;;5055510;28;20047;-70
2022/02/14 02:58:26;;;;;;;121.95;42.58;;;;;;;;;;5055583;28;20028;-70
2022/02/14 03:00:51;;;;;;;103.82;38.00;;;;;;;;;;5054795;28;20411;-70
2022/02/14 03:03:17;;;;;;;93.20;35.47;;;;;;;;;;5055075;28;20037;-70
2022/02/14 03:05:42;;;;;;;84.32;34.05;;;;;;;;;;5054920;28;20021;-70
2022/02/14 03:08:08;;;;;;;74.85;28.95;;;;;;;;;;5055072;28;20029;-71
2022/02/14 03:10:33;;;;;;;66.80;25.17;;;;;;;;;;5055037;28;20013;-70
2022/02/14 03:12:59;;;;;;;70.90;26.10;;;;;;;;;;5053822;28;20033;-70
2022/02/14 03:15:24;;;;;;;57.72;21.45;;;;;;;;;;5055130;28;20094;-70
2022/02/14 03:17:50;;;;;;;61.17;22.15;;;;;;;;;;5054487;28;20072;-70
2022/02/14 03:20:17;;;;;;;51.33;21.02;;;;;;;;;;5054883;28;20051;-70
2022/02/14 03:22:42;;;;;;;34.38;15.75;;;;;;;;;;5054760;28;20216;-70
2022/02/14 03:25:08;;;;;;;30.40;14.00;;;;;;;;;;5054546;28;20013;-70
2022/02/14 03:27:34;;;;;;;38.47;15.93;;;;;;;;;;5054597;28;20372;-70
2022/02/14 03:30:00;;;;;;;48.75;20.25;;;;;;;;;;5054152;28;20017;-70
2022/02/14 03:32:25;;;;;;;86.78;43.70;;;;;;;;;;5054321;28;20031;-70
2022/02/14 03:34:51;;;;;;;72.88;39.15;;;;;;;;;;5054466;28;20032;-70
2022/02/14 03:37:22;;;;;;;55.53;29.73;;;;;;;;;;5054685;28;20032;-70
2022/02/14 03:39:48;;;;;;;44.83;22.02;;;;;;;;;;5054342;28;20075;-70
2022/02/14 03:42:13;;;;;;;43.33;21.55;;;;;;;;;;5054687;28;20398;-70
2022/02/14 03:44:39;;;;;;;68.80;31.25;;;;;;;;;;5054326;28;20025;-70
2022/02/14 03:47:04;;;;;;;60.00;27.35;;;;;;;;;;5054394;28;20117;-70
2022/02/14 03:49:30;;;;;;;37.92;17.95;;;;;;;;;;5054158;28;20033;-70
2022/02/14 03:51:56;;;;;;;38.65;16.45;;;;;;;;;;5054034;28;20534;-70
2022/02/14 03:54:21;;;;;;;29.83;14.00;;;;;;;;;;5052767;28;20067;-70
2022/02/14 03:56:48;;;;;;;37.63;18.23;;;;;;;;;;5054094;28;20463;-69
2022/02/14 03:59:14;;;;;;;44.33;17.52;;;;;;;;;;5053993;28;20032;-70
2022/02/14 04:01:40;;;;;;;49.67;21.52;;;;;;;;;;5053768;28;20112;-69
2022/02/14 04:04:06;;;;;;;59.50;24.60;;;;;;;;;;5053731;28;20390;-69
2022/02/14 04:06:31;;;;;;;69.53;25.00;;;;;;;;;;5053891;28;20029;-69
2022/02/14 04:08:57;;;;;;;64.50;24.17;;;;;;;;;;5053312;28;20064;-69
2022/02/14 04:11:22;;;;;;;44.75;19.13;;;;;;;;;;5053896;28;20029;-69
2022/02/14 04:13:48;;;;;;;62.10;22.67;;;;;;;;;;5052470;28;20036;-69
2022/02/14 04:16:13;;;;;;;65.88;22.85;;;;;;;;;;5053499;28;20382;-71
2022/02/14 04:18:39;;;;;;;62.30;24.20;;;;;;;;;;5052192;28;20059;-70
2022/02/14 04:21:05;;;;;;;78.65;25.90;;;;;;;;;;5053418;28;20029;-70
2022/02/14 04:23:31;;;;;;;96.22;33.03;;;;;;;;;;5053411;28;20028;-68
2022/02/14 04:25:56;;;;;;;170.52;64.32;;;;;;;;;;5053482;28;20023;-68
2022/02/14 04:28:22;;;;;;;203.73;76.90;;;;;;;;;;5053367;28;20155;-68
2022/02/14 04:30:47;;;;;;;177.63;73.30;;;;;;;;;;5053881;28;20013;-67
2022/02/14 04:33:13;;;;;;;161.00;69.97;;;;;;;;;;5053341;28;20036;-68
2022/02/14 04:35:38;;;;;;;123.80;50.30;;;;;;;;;;5052683;28;20035;-68
2022/02/14 04:38:03;;;;;;;76.55;33.55;;;;;;;;;;5053468;28;20363;-69
2022/02/14 04:40:31;;;;;;;52.50;22.02;;;;;;;;;;5053454;28;20371;-69
2022/02/14 04:42:57;;;;;;;38.38;18.95;;;;;;;;;;5051384;28;20029;-70
2022/02/14 04:45:23;;;;;;;46.75;21.50;;;;;;;;;;5053197;28;20024;-70
2022/02/14 04:47:50;;;;;;;35.70;19.25;;;;;;;;;;5053178;28;20063;-71
2022/02/14 04:50:15;;;;;;;44.28;21.42;;;;;;;;;;5053495;28;20017;-71
2022/02/14 04:52:41;;;;;;;66.35;28.25;;;;;;;;;;5053113;28;20037;-69
2022/02/14 04:55:06;;;;;;;55.65;25.40;;;;;;;;;;5053244;28;20020;-69
2022/02/14 04:57:32;;;;;;;72.03;31.90;;;;;;;;;;5053198;28;20116;-69
2022/02/14 04:59:57;;;;;;;77.10;31.00;;;;;;;;;;5053058;28;20363;-69
2022/02/14 05:02:23;;;;;;;85.80;32.92;;;;;;;;;;5052738;28;20181;-69
2022/02/14 05:04:51;;;;;;;162.43;48.17;;;;;;;;;;5052908;28;20045;-76
2022/02/14 05:07:16;;;;;;;250.00;63.30;;;;;;;;;;5053019;28;20029;-75
2022/02/14 05:09:41;;;;;;;89.85;32.08;;;;;;;;;;5053216;28;20474;-75
2022/02/14 05:12:14;;;;;;;73.05;28.67;;;;;;;;;;5053057;28;20028;-76
2022/02/14 05:14:40;;;;;;;66.57;27.17;;;;;;;;;;5053363;28;20025;-76
2022/02/14 05:17:05;;;;;;;77.68;28.83;;;;;;;;;;5052688;28;20482;-76
2022/02/14 05:19:30;;;;;;;148.73;31.73;;;;;;;;;;5053319;28;20040;-76
2022/02/14 05:21:56;;;;;;;46.50;19.88;;;;;;;;;;5053387;28;20029;-77
2022/02/14 05:24:21;;;;;;;28.23;15.27;;;;;;;;;;5052988;28;20112;-76
2022/02/14 05:26:47;;;;;;;31.52;14.65;;;;;;;;;;5052688;28;20017;-76
2022/02/14 05:29:12;;;;;;;37.97;23.75;;;;;;;;;;5053095;28;20033;-75
2022/02/14 05:31:40;;;;;;;45.55;29.95;;;;;;;;;;5052822;28;20425;-74
2022/02/14 05:34:06;;;;;;;40.97;26.60;;;;;;;;;;5052852;28;20029;-76
2022/02/14 05:40:07;;;;;;;61.70;41.55;;;;;;;;;;5053355;28;20079;-76
2022/02/14 05:46:13;;;;;;;68.70;40.50;;;;;;;;;;5053548;28;20036;-75
2022/02/14 05:52:13;;;;;;;94.93;57.00;;;;;;;;;;5053253;28;20040;-76
2022/02/14 05:58:14;;;;;;;81.07;46.42;;;;;;;;;;5056871;28;20075;-76
2022/02/14 06:01:09;;;;;;;74.70;42.85;;;;;;;;;;5056401;28;20033;-76
2022/02/14 06:03:34;;;;;;;64.65;30.20;;;;;;;;;;5055445;28;20025;-76
2022/02/14 06:06:00;;;;;;;59.80;27.92;;;;;;;;;;5056188;28;20032;-76
2022/02/14 06:08:26;;;;;;;73.78;30.98;;;;;;;;;;5056011;28;20082;-69
2022/02/14 06:10:52;;;;;;;97.00;40.30;;;;;;;;;;5055725;28;20020;-70
2022/02/14 06:13:18;;;;;;;96.85;38.70;;;;;;;;;;5055849;28;20025;-70
2022/02/14 06:15:43;;;;;;;72.18;34.00;;;;;;;;;;5055919;28;20502;-70
2022/02/14 06:18:09;;;;;;;80.82;38.40;;;;;;;;;;5055229;28;20037;-70
2022/02/14 06:20:35;;;;;;;102.30;51.55;;;;;;;;;;5055770;28;20025;-70
2022/02/14 06:23:00;;;;;;;114.22;56.10;;;;;;;;;;5055959;28;20440;-71
2022/02/14 06:29:02;;;;;;;103.25;53.53;;;;;;;;;;5055999;28;20055;-70
2022/02/14 06:35:04;;;;;;;119.15;69.55;;;;;;;;;;5056178;28;20028;-70
2022/02/14 06:41:05;;;;;;;96.65;56.75;;;;;;;;;;5055956;28;20078;-70
2022/02/14 06:47:06;;;;;;;81.53;49.67;;;;;;;;;;5055942;28;20106;-70
2022/02/14 06:53:06;;;;;;;40.85;25.10;;;;;;;;;;5055777;28;20027;-70
2022/02/14 06:59:07;;;;;;;75.50;40.33;;;;;;;;;;5055833;28;20470;-70
2022/02/14 07:05:08;;;;;;;61.65;38.70;;;;;;;;;;5054466;28;20096;-70
2022/02/14 07:11:09;;;;;;;58.25;28.75;;;;;;;;;;5055488;28;20079;-70
2022/02/14 07:13:34;;;;;;;38.83;23.25;;;;;;;;;;5053711;28;20024;-70
2022/02/14 07:16:00;;;;;;;36.60;19.00;;;;;;;;;;5053344;28;20434;-70
2022/02/14 07:18:27;;;;;;;50.05;26.65;;;;;;;;;;5053031;28;20136;-70
2022/02/14 07:24:28;;;;;;;43.75;26.55;;;;;;;;;;5055262;28;20020;-70
2022/02/14 07:30:28;;;;;;;67.35;37.10;;;;;;;;;;5055167;28;20509;-70
2022/02/14 07:36:30;;;;;;;88.60;38.42;;;;;;;;;;5054741;28;20121;-71
2022/02/14 07:42:31;;;;;;;77.05;34.45;;;;;;;;;;5054630;28;20474;-71
2022/02/14 07:48:32;;;;;;;49.35;23.92;;;;;;;;;;5054775;28;20055;-70
2022/02/14 07:54:33;;;;;;;28.30;16.90;;;;;;;;;;5054661;28;20028;-71
2022/02/14 08:00:34;;;;;;;38.75;22.15;;;;;;;;;;5054561;28;20509;-70
2022/02/14 08:06:37;;;;;;;57.25;30.05;;;;;;;;;;5054195;28;20058;-70
2022/02/14 08:12:37;;;;;;;63.25;34.80;;;;;;;;;;5054346;28;20467;-71
2022/02/14 08:22:12;;;;;;;51.10;26.25;;;;;;;;;;5053959;28;20076;-70
2022/02/14 08:28:12;;;;;;;29.17;16.00;;;;;;;;;;5053867;28;20027;-70
2022/02/14 08:34:13;;;;;;;49.13;22.35;;;;;;;;;;5054005;28;20086;-71
2022/02/14 08:40:14;;;;;;;38.90;19.33;;;;;;;;;;5053918;28;20378;-70
2022/02/14 08:46:15;;;;;;;45.65;24.17;;;;;;;;;;5053627;28;20044;-70
2022/02/14 08:52:15;;;;;;;34.90;21.83;;;;;;;;;;5053784;28;20063;-70
2022/02/14 08:58:16;;;;;;;35.15;19.63;;;;;;;;;;5053759;28;20043;-70
2022/02/14 09:00:41;;;;;;;22.42;12.30;;;;;;;;;;5053011;28;20483;-69
2022/02/14 09:03:07;;;;;;;27.02;14.25;;;;;;;;;;5053097;28;20471;-70
2022/02/14 09:05:32;;;;;;;27.50;15.27;;;;;;;;;;5052781;28;20036;-70
2022/02/14 09:07:58;;;;;;;23.00;11.88;;;;;;;;;;5053069;28;20025;-70
2022/02/14 09:10:25;;;;;;;22.48;12.07;;;;;;;;;;5053021;28;20021;-71
2022/02/14 09:16:25;;;;;;;22.05;12.93;;;;;;;;;;5053630;28;20485;-70
2022/02/14 09:25:36;;;;;;;17.88;10.35;;;;;;;;;;5053268;28;20031;-69
2022/02/14 09:31:37;;;;;;;11.90;7.80;;;;;;;;;;5057143;28;20180;-70
2022/02/14 09:37:38;;;;;;;10.07;6.75;;;;;;;;;;5057318;28;20055;-70
2022/02/14 09:43:39;;;;;;;9.20;5.30;;;;;;;;;;5057192;28;20044;-70
2022/02/14 09:49:41;;;;;;;10.57;8.00;;;;;;;;;;5056788;28;20490;-70
2022/02/14 09:55:43;;;;;;;11.98;6.80;;;;;;;;;;5056957;28;20138;-70
2022/02/14 10:01:44;;;;;;;9.93;6.18;;;;;;;;;;5056650;28;20044;-70
2022/02/14 10:07:49;;;;;;;9.25;6.90;;;;;;;;;;5056743;28;20073;-70
2022/02/14 10:13:53;;;;;;;11.38;7.13;;;;;;;;;;5056605;28;20060;-70
2022/02/14 10:19:55;;;;;;;13.48;6.75;;;;;;;;;;5056504;28;20431;-70
2022/02/14 10:29:22;;;;;;;9.18;5.57;;;;;;;;;;5056313;28;20143;-70
2022/02/14 10:34:53;;;;;;;8.63;6.38;;;;;;;;;;5056272;28;20377;-70
2022/02/14 10:51:06;;;;;;;8.13;5.07;;;;;;;;;;5055672;28;20055;-70
2022/02/14 10:57:25;;;;;;;7.38;4.57;;;;;;;;;;5055774;28;20028;-70
2022/02/14 11:04:16;;;;;;;10.43;6.90;;;;;;;;;;5053438;28;20095;-70
2022/02/14 11:10:17;;;;;;;9.25;5.25;;;;;;;;;;5053505;28;20521;-70
2022/02/14 11:16:19;;;;;;;11.20;6.85;;;;;;;;;;5053393;28;20105;-70
2022/02/14 11:22:20;;;;;;;13.90;8.25;;;;;;;;;;5052962;28;20111;-70
2022/02/14 11:49:52;;;;;;;11.35;6.88;;;;;;;;;;5054791;28;20020;-70
2022/02/14 11:55:53;;;;;;;3.75;2.60;;;;;;;;;;5054677;28;20074;-70
2022/02/14 12:01:57;;;;;;;8.82;5.97;;;;;;;;;;5054394;28;20043;-71
2022/02/14 12:07:57;;;;;;;11.90;7.50;;;;;;;;;;5054463;28;20115;-77
2022/02/14 12:13:59;;;;;;;8.25;5.28;;;;;;;;;;5054398;28;20031;-76
2022/02/14 12:26:55;;;;;;;7.22;5.47;;;;;;;;;;5054183;28;20454;-76
2022/02/14 12:33:10;;;;;;;6.05;4.82;;;;;;;;;;5053847;28;20051;-76
2022/02/14 12:39:10;;;;;;;7.72;5.47;;;;;;;;;;5054022;28;20079;-76
2022/02/14 12:45:14;;;;;;;3.45;2.33;;;;;;;;;;5053922;28;20028;-76
2022/02/14 12:58:24;;;;;;;7.07;3.70;;;;;;;;;;5053795;28;20023;-76
2022/02/14 13:04:28;;;;;;;9.77;6.13;;;;;;;;;;5056855;28;20051;-76
2022/02/14 13:10:28;;;;;;;2.95;2.67;;;;;;;;;;5057814;28;20075;-76
2022/02/14 13:16:29;;;;;;;6.07;4.45;;;;;;;;;;5057671;28;20032;-76
2022/02/14 13:18:54;;;;;;;5.90;4.18;;;;;;;;;;5057298;28;20367;-76
2022/02/14 13:21:23;;;;;;;7.03;4.43;;;;;;;;;;5056859;28;20029;-76
2022/02/14 13:23:48;;;;;;;5.35;4.30;;;;;;;;;;5057066;28;20355;-76
2022/02/14 13:30:09;;;;;;;8.85;5.30;;;;;;;;;;5034662;28;20103;-76
2022/02/14 13:36:23;;;;;;;3.95;3.10;;;;;;;;;;5057338;28;20250;-76
2022/02/14 13:42:24;;;;;;;9.27;5.90;;;;;;;;;;5056996;28;20150;-76
2022/02/14 13:48:25;;;;;;;3.72;3.42;;;;;;;;;;5057308;28;20067;-76
2022/02/14 13:54:26;;;;;;;3.50;2.15;;;;;;;;;;5057011;28;20445;-76
2022/02/14 14:00:33;;;;;;;17.60;12.55;;;;;;;;;;5056884;28;20478;-76
2022/02/14 14:06:35;;;;;;;6.60;4.30;;;;;;;;;;5056773;28;20055;-76
2022/02/14 14:16:12;;;;;;;3.17;2.88;;;;;;;;;;5056022;28;20117;-76
2022/02/14 14:18:38;;;;;;;5.65;4.72;;;;;;;;;;5055995;28;20025;-76
2022/02/14 14:21:07;;;;;;;12.65;7.80;;;;;;;;;;5055395;28;20501;-76
2022/02/14 14:23:33;;;;;;;7.80;6.18;;;;;;;;;;5055889;28;20033;-76
2022/02/14 14:29:34;;;;;;;27.30;13.60;;;;;;;;;;5056364;28;20140;-76
2022/02/14 14:35:23;;;;;;;7.43;5.50;;;;;;;;;;5055501;28;20132;-74
2022/02/14 14:37:50;;;;;;;7.88;4.72;;;;;;;;;;5055516;28;20060;-74
2022/02/14 14:40:16;;;;;;;12.00;6.68;;;;;;;;;;5055498;28;20024;-74
2022/02/14 14:42:42;;;;;;;12.85;8.30;;;;;;;;;;5055557;28;20107;-74
2022/02/14 14:45:09;;;;;;;21.38;12.45;;;;;;;;;;5055375;28;20107;-74
2022/02/14 14:47:36;;;;;;;18.88;12.95;;;;;;;;;;5055642;28;20036;-75
2022/02/14 14:53:37;;;;;;;33.88;19.95;;;;;;;;;;5055922;28;20032;-75
2022/02/14 14:59:38;;;;;;;26.25;14.30;;;;;;;;;;5056272;28;20023;-75
2022/02/14 15:02:03;;;;;;;10.43;6.47;;;;;;;;;;5055220;28;20492;-74
2022/02/14 15:04:29;;;;;;;12.45;7.47;;;;;;;;;;5055211;28;20017;-77
2022/02/14 15:06:55;;;;;;;21.58;11.77;;;;;;;;;;5055063;28;20036;-75
2022/02/14 15:09:24;;;;;;;12.27;7.55;;;;;;;;;;5055008;28;20017;-75
2022/02/14 15:11:53;;;;;;;13.15;8.77;;;;;;;;;;5055011;28;20037;-75
2022/02/14 15:14:18;;;;;;;29.90;14.35;;;;;;;;;;5053885;28;20020;-70
2022/02/14 15:16:44;;;;;;;28.38;13.68;;;;;;;;;;5054292;28;20394;-70
2022/02/14 15:19:10;;;;;;;22.23;11.55;;;;;;;;;;5054821;28;20040;-70
2022/02/14 15:21:37;;;;;;;31.25;13.88;;;;;;;;;;5054751;28;20437;-70
2022/02/14 15:24:03;;;;;;;34.83;15.68;;;;;;;;;;5054707;28;20032;-70
2022/02/14 15:26:29;;;;;;;30.95;13.43;;;;;;;;;;5054022;28;20147;-70
2022/02/14 15:28:54;;;;;;;40.78;16.40;;;;;;;;;;5054559;28;20017;-70
2022/02/14 15:31:20;;;;;;;29.08;12.45;;;;;;;;;;5054389;28;20441;-70
2022/02/14 15:33:45;;;;;;;45.78;16.48;;;;;;;;;;5054402;28;20035;-70
2022/02/14 15:36:11;;;;;;;36.38;14.93;;;;;;;;;;5054483;28;20098;-70
2022/02/14 15:38:37;;;;;;;38.55;15.30;;;;;;;;;;5054283;28;20543;-70
2022/02/14 15:41:04;;;;;;;41.60;18.02;;;;;;;;;;5054165;28;20403;-70
2022/02/14 15:43:30;;;;;;;13.57;8.48;;;;;;;;;;5054223;28;20092;-70
2022/02/14 15:45:56;;;;;;;6.75;5.22;;;;;;;;;;5054238;28;20033;-70
2022/02/14 15:48:22;;;;;;;8.35;5.20;;;;;;;;;;5054220;28;20052;-70
2022/02/14 15:50:48;;;;;;;14.00;7.82;;;;;;;;;;5054453;28;20033;-70
2022/02/14 15:53:14;;;;;;;12.15;7.95;;;;;;;;;;5054040;28;20032;-71
2022/02/14 15:55:40;;;;;;;22.42;16.67;;;;;;;;;;5054427;28;20036;-70
2022/02/14 15:58:05;;;;;;;47.85;27.05;;;;;;;;;;5054076;28;20063;-70
2022/02/14 16:00:31;;;;;;;8.15;5.63;;;;;;;;;;5054280;28;20467;-70
2022/02/14 16:02:56;;;;;;;33.38;19.38;;;;;;;;;;5054080;28;20517;-70
2022/02/14 16:05:22;;;;;;;22.60;15.30;;;;;;;;;;5054103;28;20025;-70
2022/02/14 16:07:48;;;;;;;16.63;10.75;;;;;;;;;;5053858;28;20527;-70
2022/02/14 16:10:13;;;;;;;40.42;14.90;;;;;;;;;;5053395;28;20033;-70
2022/02/14 16:12:39;;;;;;;100.05;38.20;;;;;;;;;;5053253;28;20027;-70
2022/02/14 16:15:13;;;;;;;48.25;27.13;;;;;;;;;;5054133;28;20434;-70
2022/02/14 16:17:42;;;;;;;24.15;14.50;;;;;;;;;;5053887;28;20490;-70
2022/02/14 16:20:14;;;;;;;33.45;19.30;;;;;;;;;;5053802;28;20104;-70
2022/02/14 16:22:43;;;;;;;68.90;33.63;;;;;;;;;;5053817;28;20037;-70
2022/02/14 16:25:09;;;;;;;75.30;37.38;;;;;;;;;;5053675;28;20013;-70
2022/02/14 16:27:35;;;;;;;79.28;35.75;;;;;;;;;;5053122;28;20033;-70
2022/02/14 16:30:02;;;;;;;108.57;41.63;;;;;;;;;;5053498;28;20024;-70
2022/02/14 16:39:51;;;;;;;277.80;117.53;;;;;;;;;;5053988;28;20070;-70
2022/02/14 16:45:51;;;;;;;141.43;65.75;;;;;;;;;;5053676;28;20116;-70
2022/02/14 16:51:53;;;;;;;103.47;52.40;;;;;;;;;;5053869;28;20406;-70
2022/02/14 16:57:54;;;;;;;102.20;42.55;;;;;;;;;;5053790;28;20056;-69
2022/02/14 17:03:55;;;;;;;91.22;54.17;;;;;;;;;;5053494;28;20059;-70
2022/02/14 17:09:56;;;;;;;104.53;53.13;;;;;;;;;;5053679;28;20118;-70
2022/02/14 17:15:57;;;;;;;103.68;55.67;;;;;;;;;;5053394;28;20482;-70
2022/02/14 17:21:58;;;;;;;56.28;29.08;;;;;;;;;;5053399;28;20116;-70
2022/02/14 17:32:01;;;;;;;142.98;68.07;;;;;;;;;;5053225;28;20032;-70
2022/02/14 17:42:07;;;;;;;274.90;110.85;;;;;;;;;;5053108;28;20036;-70
2022/02/14 17:48:08;;;;;;;232.77;98.55;;;;;;;;;;5053294;28;20027;-71
2022/02/14 17:54:11;;;;;;;348.73;133.88;;;;;;;;;;5056706;28;20054;-70
2022/02/14 17:56:36;;;;;;;336.05;137.18;;;;;;;;;;5056668;28;20033;-70
2022/02/14 17:59:02;;;;;;;261.50;108.28;;;;;;;;;;5056723;28;20017;-70
2022/02/14 18:01:27;;;;;;;170.55;56.85;;;;;;;;;;5056324;28;20060;-70
2022/02/14 18:03:52;;;;;;;318.85;104.05;;;;;;;;;;5056442;28;20383;-70
2022/02/14 18:06:18;;;;;;;257.40;105.70;;;;;;;;;;5056346;28;20036;-70
2022/02/14 18:08:43;;;;;;;227.60;122.32;;;;;;;;;;5056439;28;20017;-70
2022/02/14 18:11:11;;;;;;;274.05;133.13;;;;;;;;;;5056303;28;20490;-70
2022/02/14 18:13:36;;;;;;;205.95;101.60;;;;;;;;;;5056059;28;20078;-70
2022/02/14 18:16:02;;;;;;;228.82;117.68;;;;;;;;;;5056103;28;20102;-69
2022/02/14 18:18:27;;;;;;;211.88;109.18;;;;;;;;;;5055928;28;20478;-69
2022/02/14 18:20:53;;;;;;;243.70;120.88;;;;;;;;;;5055356;28;20099;-69
2022/02/14 18:23:20;;;;;;;256.05;129.25;;;;;;;;;;5056241;28;20032;-69
2022/02/14 18:25:45;;;;;;;166.85;89.28;;;;;;;;;;5059547;28;20135;-69
2022/02/14 18:28:11;;;;;;;217.35;104.75;;;;;;;;;;5075828;28;20051;-69
2022/02/14 18:30:37;;;;;;;158.45;79.93;;;;;;;;;;5076047;28;20055;-69
2022/02/14 18:33:03;;;;;;;135.88;65.53;;;;;;;;;;5074546;28;20028;-69
2022/02/14 18:35:29;;;;;;;153.18;73.38;;;;;;;;;;5075799;28;20037;-69
2022/02/14 18:37:54;;;;;;;174.30;71.97;;;;;;;;;;5074998;28;20052;-69
2022/02/14 18:40:20;;;;;;;191.43;80.75;;;;;;;;;;5075333;28;20036;-69
2022/02/14 18:42:45;;;;;;;160.88;68.00;;;;;;;;;;5074288;28;20025;-69
2022/02/14 18:45:14;;;;;;;179.23;73.07;;;;;;;;;;5075481;28;20474;-69
2022/02/14 18:47:40;;;;;;;116.10;49.78;;;;;;;;;;5075511;28;20024;-69
2022/02/14 18:50:06;;;;;;;94.20;42.97;;;;;;;;;;5075204;28;20155;-69
2022/02/14 18:52:32;;;;;;;96.60;41.53;;;;;;;;;;5075247;28;20448;-69
2022/02/14 18:54:58;;;;;;;82.47;38.60;;;;;;;;;;5075389;28;20059;-70
2022/02/14 18:57:24;;;;;;;91.57;43.25;;;;;;;;;;5075318;28;20024;-74
2022/02/14 18:59:53;;;;;;;101.35;47.97;;;;;;;;;;5074009;28;20043;-74
2022/02/14 19:02:24;;;;;;;112.53;53.08;;;;;;;;;;5074367;28;20020;-75
2022/02/14 19:04:50;;;;;;;108.05;47.25;;;;;;;;;;5075011;28;20028;-74
2022/02/14 19:07:15;;;;;;;190.02;84.45;;;;;;;;;;5074896;28;20021;-74
2022/02/14 19:09:41;;;;;;;156.27;69.38;;;;;;;;;;5075301;28;20036;-74
2022/02/14 19:12:07;;;;;;;157.90;69.85;;;;;;;;;;5074787;28;20032;-74
2022/02/14 19:14:32;;;;;;;166.20;70.25;;;;;;;;;;5075066;28;20032;-76
2022/02/14 19:16:59;;;;;;;156.77;71.38;;;;;;;;;;5074989;28;20024;-76
2022/02/14 19:19:26;;;;;;;129.73;57.70;;;;;;;;;;5074763;28;20493;-76
2022/02/14 19:21:52;;;;;;;60.17;26.00;;;;;;;;;;5074535;28;20402;-76
2022/02/14 19:24:20;;;;;;;111.70;48.95;;;;;;;;;;5074013;28;20037;-76
2022/02/14 19:26:48;;;;;;;79.07;39.30;;;;;;;;;;5074696;28;20547;-76
2022/02/14 19:29:16;;;;;;;57.38;25.55;;;;;;;;;;5075331;28;20031;-76
2022/02/14 19:31:43;;;;;;;56.95;26.63;;;;;;;;;;5074594;28;20063;-76
2022/02/14 19:34:12;;;;;;;50.78;24.20;;;;;;;;;;5074748;28;20517;-76
2022/02/14 19:36:37;;;;;;;70.85;32.10;;;;;;;;;;5073977;28;20016;-76
2022/02/14 19:39:03;;;;;;;88.28;48.63;;;;;;;;;;5073974;28;20090;-76
2022/02/14 19:41:29;;;;;;;59.25;29.73;;;;;;;;;;5074575;28;20041;-76
2022/02/14 19:43:55;;;;;;;53.40;27.40;;;;;;;;;;5074366;28;20032;-76
2022/02/14 19:46:20;;;;;;;101.50;43.28;;;;;;;;;;5074183;28;20047;-76
2022/02/14 19:48:48;;;;;;;103.50;54.03;;;;;;;;;;5074299;28;20024;-76
2022/02/14 19:51:16;;;;;;;62.42;33.58;;;;;;;;;;5074295;28;20017;-76
2022/02/14 19:53:42;;;;;;;60.22;29.50;;;;;;;;;;5072848;28;20070;-77
2022/02/14 19:56:08;;;;;;;51.38;29.40;;;;;;;;;;5074145;28;20403;-76
2022/02/14 19:58:35;;;;;;;44.65;23.58;;;;;;;;;;5074036;28;20027;-76
2022/02/14 20:01:02;;;;;;;57.22;29.90;;;;;;;;;;5074120;28;20012;-76
2022/02/14 20:03:28;;;;;;;101.97;33.70;;;;;;;;;;5073986;28;20034;-76
2022/02/14 20:05:54;;;;;;;79.15;37.63;;;;;;;;;;5074018;28;20028;-75
2022/02/14 20:08:22;;;;;;;65.43;32.55;;;;;;;;;;5074046;28;20493;-77
2022/02/14 20:10:49;;;;;;;60.10;29.65;;;;;;;;;;5074337;28;20021;-77
2022/02/14 20:13:16;;;;;;;50.60;26.60;;;;;;;;;;5072483;28;20036;-77
2022/02/14 20:15:42;;;;;;;46.80;23.80;;;;;;;;;;5072590;28;20016;-76
2022/02/14 20:18:08;;;;;;;57.85;28.50;;;;;;;;;;5073941;28;20036;-78
2022/02/14 20:20:36;;;;;;;64.32;33.47;;;;;;;;;;5074078;28;20486;-77
2022/02/14 20:23:03;;;;;;;115.88;53.03;;;;;;;;;;5074314;28;20451;-77
2022/02/14 20:25:36;;;;;;;113.22;50.17;;;;;;;;;;5072873;28;20016;-78
2022/02/14 20:28:08;;;;;;;125.95;57.15;;;;;;;;;;5073949;28;20029;-78